sensor_id;sensor_type;location;lat;lon;timestamp;temperature;humidity
33988;DHT22;37428;53.580;-1.666;2022-08-20T00:01:39;14.90;70.00
33988;DHT22;37428;53.580;-1.666;2022-08-20T00:04:41;14.90;70.30
33988;DHT22;37428;53.580;-1.666;2022-08-20T00:07:44;14.90;70.50
33988;DHT22;37428;53.580;-1.666;2022-08-20T00:10:48;14.90;70.80
33988;DHT22;37428;53.580;-1.666;2022-08-20T00:13:55;14.80;71.20
33988;DHT22;37428;53.580;-1.666;2022-08-20T00:16:57;14.80;71.50
33988;DHT22;37428;53.580;-1.666;2022-08-20T00:20:00;14.80;71.90
33988;DHT22;37428;53.580;-1.666;2022-08-20T00:23:03;14.80;72.10
33988;DHT22;37428;53.580;-1.666;2022-08-20T00:26:07;14.80;72.60
33988;DHT22;37428;53.580;-1.666;2022-08-20T00:29:11;14.70;72.90
33988;DHT22;37428;53.580;-1.666;2022-08-20T00:32:13;14.70;73.30
33988;DHT22;37428;53.580;-1.666;2022-08-20T00:35:17;14.70;73.70
33988;DHT22;37428;53.580;-1.666;2022-08-20T00:38:20;14.60;74.10
33988;DHT22;37428;53.580;-1.666;2022-08-20T00:41:24;14.60;74.50
33988;DHT22;37428;53.580;-1.666;2022-08-20T00:44:29;14.60;74.90
33988;DHT22;37428;53.580;-1.666;2022-08-20T00:47:31;14.50;75.20
33988;DHT22;37428;53.580;-1.666;2022-08-20T00:50:35;14.60;75.30
33988;DHT22;37428;53.580;-1.666;2022-08-20T00:53:39;14.50;75.70
33988;DHT22;37428;53.580;-1.666;2022-08-20T00:56:41;14.50;75.90
33988;DHT22;37428;53.580;-1.666;2022-08-20T00:59:48;14.50;76.30
33988;DHT22;37428;53.580;-1.666;2022-08-20T01:02:51;14.40;76.60
33988;DHT22;37428;53.580;-1.666;2022-08-20T01:05:54;14.40;76.90
33988;DHT22;37428;53.580;-1.666;2022-08-20T01:08:57;14.40;77.00
33988;DHT22;37428;53.580;-1.666;2022-08-20T01:12:02;14.30;77.30
33988;DHT22;37428;53.580;-1.666;2022-08-20T01:15:09;14.30;77.50
33988;DHT22;37428;53.580;-1.666;2022-08-20T01:18:18;14.30;77.80
33988;DHT22;37428;53.580;-1.666;2022-08-20T01:21:21;14.30;78.30
33988;DHT22;37428;53.580;-1.666;2022-08-20T01:24:31;14.20;78.20
33988;DHT22;37428;53.580;-1.666;2022-08-20T01:27:37;14.20;78.20
33988;DHT22;37428;53.580;-1.666;2022-08-20T01:30:40;14.20;78.40
33988;DHT22;37428;53.580;-1.666;2022-08-20T01:33:44;14.30;78.60
33988;DHT22;37428;53.580;-1.666;2022-08-20T01:36:48;14.30;78.80
33988;DHT22;37428;53.580;-1.666;2022-08-20T01:39:51;14.30;79.00
33988;DHT22;37428;53.580;-1.666;2022-08-20T01:42:55;14.30;79.30
33988;DHT22;37428;53.580;-1.666;2022-08-20T01:45:58;14.30;79.90
33988;DHT22;37428;53.580;-1.666;2022-08-20T01:49:05;14.20;80.50
33988;DHT22;37428;53.580;-1.666;2022-08-20T01:52:10;14.30;80.80
33988;DHT22;37428;53.580;-1.666;2022-08-20T01:55:14;14.30;81.00
33988;DHT22;37428;53.580;-1.666;2022-08-20T01:58:18;14.20;81.00
33988;DHT22;37428;53.580;-1.666;2022-08-20T02:01:24;14.20;81.00
33988;DHT22;37428;53.580;-1.666;2022-08-20T02:04:27;14.20;80.90
33988;DHT22;37428;53.580;-1.666;2022-08-20T02:07:30;14.30;80.90
33988;DHT22;37428;53.580;-1.666;2022-08-20T02:10:32;14.30;80.90
33988;DHT22;37428;53.580;-1.666;2022-08-20T02:13:36;14.40;80.90
33988;DHT22;37428;53.580;-1.666;2022-08-20T02:16:43;14.30;81.10
33988;DHT22;37428;53.580;-1.666;2022-08-20T02:19:50;14.30;81.30
33988;DHT22;37428;53.580;-1.666;2022-08-20T02:22:55;14.30;81.50
33988;DHT22;37428;53.580;-1.666;2022-08-20T02:25:58;14.30;81.80
33988;DHT22;37428;53.580;-1.666;2022-08-20T02:29:04;14.30;82.10
33988;DHT22;37428;53.580;-1.666;2022-08-20T02:32:07;14.30;82.20
33988;DHT22;37428;53.580;-1.666;2022-08-20T02:35:10;14.30;82.40
33988;DHT22;37428;53.580;-1.666;2022-08-20T02:38:14;14.30;82.30
33988;DHT22;37428;53.580;-1.666;2022-08-20T02:41:16;14.30;82.40
33988;DHT22;37428;53.580;-1.666;2022-08-20T02:44:22;14.20;82.40
33988;DHT22;37428;53.580;-1.666;2022-08-20T02:47:25;14.20;82.60
33988;DHT22;37428;53.580;-1.666;2022-08-20T02:50:28;14.20;82.70
33988;DHT22;37428;53.580;-1.666;2022-08-20T02:53:33;14.20;82.90
33988;DHT22;37428;53.580;-1.666;2022-08-20T02:56:35;14.20;82.80
33988;DHT22;37428;53.580;-1.666;2022-08-20T02:59:39;14.20;83.10
33988;DHT22;37428;53.580;-1.666;2022-08-20T03:02:41;14.30;83.10
33988;DHT22;37428;53.580;-1.666;2022-08-20T03:05:44;14.30;83.30
33988;DHT22;37428;53.580;-1.666;2022-08-20T03:08:46;14.30;83.30
33988;DHT22;37428;53.580;-1.666;2022-08-20T03:11:48;14.20;83.30
33988;DHT22;37428;53.580;-1.666;2022-08-20T03:14:52;14.20;83.40
33988;DHT22;37428;53.580;-1.666;2022-08-20T03:17:54;14.20;83.30
33988;DHT22;37428;53.580;-1.666;2022-08-20T03:20:57;14.20;83.50
33988;DHT22;37428;53.580;-1.666;2022-08-20T03:23:59;14.20;83.50
33988;DHT22;37428;53.580;-1.666;2022-08-20T03:27:01;14.20;83.50
33988;DHT22;37428;53.580;-1.666;2022-08-20T03:30:06;14.20;83.80
33988;DHT22;37428;53.580;-1.666;2022-08-20T03:33:09;14.20;83.90
33988;DHT22;37428;53.580;-1.666;2022-08-20T03:36:11;14.20;84.10
33988;DHT22;37428;53.580;-1.666;2022-08-20T03:39:14;14.20;84.10
33988;DHT22;37428;53.580;-1.666;2022-08-20T03:42:17;14.20;84.20
33988;DHT22;37428;53.580;-1.666;2022-08-20T03:45:22;14.20;84.30
33988;DHT22;37428;53.580;-1.666;2022-08-20T03:48:24;14.20;84.20
33988;DHT22;37428;53.580;-1.666;2022-08-20T03:51:27;14.20;84.30
33988;DHT22;37428;53.580;-1.666;2022-08-20T03:54:30;14.20;84.40
33988;DHT22;37428;53.580;-1.666;2022-08-20T03:57:32;14.30;84.30
33988;DHT22;37428;53.580;-1.666;2022-08-20T04:00:38;14.30;84.20
33988;DHT22;37428;53.580;-1.666;2022-08-20T04:03:41;14.40;84.00
33988;DHT22;37428;53.580;-1.666;2022-08-20T04:06:44;14.30;84.30
33988;DHT22;37428;53.580;-1.666;2022-08-20T04:09:46;14.40;84.30
33988;DHT22;37428;53.580;-1.666;2022-08-20T04:12:48;14.40;84.40
33988;DHT22;37428;53.580;-1.666;2022-08-20T04:15:52;14.40;84.40
33988;DHT22;37428;53.580;-1.666;2022-08-20T04:18:56;14.30;84.50
33988;DHT22;37428;53.580;-1.666;2022-08-20T04:21:58;14.30;84.30
33988;DHT22;37428;53.580;-1.666;2022-08-20T04:25:00;14.30;84.50
33988;DHT22;37428;53.580;-1.666;2022-08-20T04:28:04;14.30;84.60
33988;DHT22;37428;53.580;-1.666;2022-08-20T04:31:08;14.30;84.70
33988;DHT22;37428;53.580;-1.666;2022-08-20T04:34:13;14.30;84.60
33988;DHT22;37428;53.580;-1.666;2022-08-20T04:37:19;14.30;84.60
33988;DHT22;37428;53.580;-1.666;2022-08-20T04:40:22;14.30;84.70
33988;DHT22;37428;53.580;-1.666;2022-08-20T04:43:41;14.30;84.80
33988;DHT22;37428;53.580;-1.666;2022-08-20T04:46:45;14.30;84.90
33988;DHT22;37428;53.580;-1.666;2022-08-20T04:49:47;14.30;84.90
33988;DHT22;37428;53.580;-1.666;2022-08-20T04:52:49;14.30;84.80
33988;DHT22;37428;53.580;-1.666;2022-08-20T04:55:53;14.40;84.80
33988;DHT22;37428;53.580;-1.666;2022-08-20T04:58:59;14.40;84.70
33988;DHT22;37428;53.580;-1.666;2022-08-20T05:02:03;14.30;84.80
33988;DHT22;37428;53.580;-1.666;2022-08-20T05:05:06;14.30;84.90
33988;DHT22;37428;53.580;-1.666;2022-08-20T05:08:08;14.30;85.10
33988;DHT22;37428;53.580;-1.666;2022-08-20T05:11:11;14.30;85.10
33988;DHT22;37428;53.580;-1.666;2022-08-20T05:14:14;14.30;85.20
33988;DHT22;37428;53.580;-1.666;2022-08-20T05:17:17;14.30;85.30
33988;DHT22;37428;53.580;-1.666;2022-08-20T05:20:21;14.30;85.20
33988;DHT22;37428;53.580;-1.666;2022-08-20T05:23:23;14.40;85.30
33988;DHT22;37428;53.580;-1.666;2022-08-20T05:26:25;14.40;85.50
33988;DHT22;37428;53.580;-1.666;2022-08-20T05:29:27;14.30;85.40
33988;DHT22;37428;53.580;-1.666;2022-08-20T05:32:31;14.40;85.50
33988;DHT22;37428;53.580;-1.666;2022-08-20T05:35:36;14.40;85.50
33988;DHT22;37428;53.580;-1.666;2022-08-20T05:38:39;14.40;85.40
33988;DHT22;37428;53.580;-1.666;2022-08-20T05:41:41;14.50;85.50
33988;DHT22;37428;53.580;-1.666;2022-08-20T05:44:43;14.50;85.40
33988;DHT22;37428;53.580;-1.666;2022-08-20T05:47:48;14.60;85.50
33988;DHT22;37428;53.580;-1.666;2022-08-20T05:50:51;14.60;85.50
33988;DHT22;37428;53.580;-1.666;2022-08-20T05:53:55;14.70;85.40
33988;DHT22;37428;53.580;-1.666;2022-08-20T05:56:57;14.70;85.40
33988;DHT22;37428;53.580;-1.666;2022-08-20T06:00:01;14.70;85.60
33988;DHT22;37428;53.580;-1.666;2022-08-20T06:03:06;14.70;85.80
33988;DHT22;37428;53.580;-1.666;2022-08-20T06:06:40;14.70;86.20
33988;DHT22;37428;53.580;-1.666;2022-08-20T06:09:42;14.80;86.30
33988;DHT22;37428;53.580;-1.666;2022-08-20T06:12:44;15.00;85.90
33988;DHT22;37428;53.580;-1.666;2022-08-20T06:15:47;15.10;85.30
33988;DHT22;37428;53.580;-1.666;2022-08-20T06:18:50;15.20;85.00
33988;DHT22;37428;53.580;-1.666;2022-08-20T06:21:53;15.30;84.50
33988;DHT22;37428;53.580;-1.666;2022-08-20T06:24:56;15.40;84.10
33988;DHT22;37428;53.580;-1.666;2022-08-20T06:27:59;15.50;83.60
33988;DHT22;37428;53.580;-1.666;2022-08-20T06:31:01;15.70;83.00
33988;DHT22;37428;53.580;-1.666;2022-08-20T06:34:05;15.70;82.60
33988;DHT22;37428;53.580;-1.666;2022-08-20T06:37:13;15.60;82.70
33988;DHT22;37428;53.580;-1.666;2022-08-20T06:40:19;15.70;83.00
33988;DHT22;37428;53.580;-1.666;2022-08-20T06:43:22;15.70;83.10
33988;DHT22;37428;53.580;-1.666;2022-08-20T06:46:25;15.70;82.90
33988;DHT22;37428;53.580;-1.666;2022-08-20T06:49:29;15.70;83.00
33988;DHT22;37428;53.580;-1.666;2022-08-20T06:52:31;15.70;82.70
33988;DHT22;37428;53.580;-1.666;2022-08-20T06:55:35;15.60;83.00
33988;DHT22;37428;53.580;-1.666;2022-08-20T06:58:37;15.60;83.00
33988;DHT22;37428;53.580;-1.666;2022-08-20T07:01:40;15.70;83.00
33988;DHT22;37428;53.580;-1.666;2022-08-20T07:04:43;15.90;83.00
33988;DHT22;37428;53.580;-1.666;2022-08-20T07:07:46;16.30;81.50
33988;DHT22;37428;53.580;-1.666;2022-08-20T07:10:50;16.50;79.90
33988;DHT22;37428;53.580;-1.666;2022-08-20T07:13:53;16.50;79.60
33988;DHT22;37428;53.580;-1.666;2022-08-20T07:16:56;16.40;79.90
33988;DHT22;37428;53.580;-1.666;2022-08-20T07:20:02;16.70;79.50
33988;DHT22;37428;53.580;-1.666;2022-08-20T07:23:05;17.20;78.10
33988;DHT22;37428;53.580;-1.666;2022-08-20T07:26:11;17.20;77.10
33988;DHT22;37428;53.580;-1.666;2022-08-20T07:29:13;17.10;76.90
33988;DHT22;37428;53.580;-1.666;2022-08-20T07:32:16;17.00;76.90
33988;DHT22;37428;53.580;-1.666;2022-08-20T07:35:38;16.90;77.00
33988;DHT22;37428;53.580;-1.666;2022-08-20T07:38:40;16.80;77.70
33988;DHT22;37428;53.580;-1.666;2022-08-20T07:41:45;16.70;78.00
33988;DHT22;37428;53.580;-1.666;2022-08-20T07:45:03;17.30;76.90
33988;DHT22;37428;53.580;-1.666;2022-08-20T07:48:06;18.00;73.70
33988;DHT22;37428;53.580;-1.666;2022-08-20T07:51:10;18.10;72.20
33988;DHT22;37428;53.580;-1.666;2022-08-20T07:54:12;17.90;72.90
33988;DHT22;37428;53.580;-1.666;2022-08-20T07:57:14;17.60;74.10
33988;DHT22;37428;53.580;-1.666;2022-08-20T08:00:20;17.70;74.00
33988;DHT22;37428;53.580;-1.666;2022-08-20T08:03:23;17.70;74.40
33988;DHT22;37428;53.580;-1.666;2022-08-20T08:06:27;17.70;74.40
33988;DHT22;37428;53.580;-1.666;2022-08-20T08:09:32;17.80;74.70
33988;DHT22;37428;53.580;-1.666;2022-08-20T08:12:37;18.10;74.00
33988;DHT22;37428;53.580;-1.666;2022-08-20T08:15:44;17.90;73.70
33988;DHT22;37428;53.580;-1.666;2022-08-20T08:18:48;17.90;76.10
33988;DHT22;37428;53.580;-1.666;2022-08-20T08:21:54;17.60;78.10
33988;DHT22;37428;53.580;-1.666;2022-08-20T08:24:57;17.50;77.50
33988;DHT22;37428;53.580;-1.666;2022-08-20T08:28:02;18.10;76.40
33988;DHT22;37428;53.580;-1.666;2022-08-20T08:31:05;18.20;74.90
33988;DHT22;37428;53.580;-1.666;2022-08-20T08:34:07;18.30;74.00
33988;DHT22;37428;53.580;-1.666;2022-08-20T08:37:11;18.90;73.10
33988;DHT22;37428;53.580;-1.666;2022-08-20T08:40:13;19.40;69.40
33988;DHT22;37428;53.580;-1.666;2022-08-20T08:43:15;19.80;67.50
33988;DHT22;37428;53.580;-1.666;2022-08-20T08:46:25;20.30;65.90
33988;DHT22;37428;53.580;-1.666;2022-08-20T08:49:31;20.60;65.00
33988;DHT22;37428;53.580;-1.666;2022-08-20T08:52:38;20.20;65.00
33988;DHT22;37428;53.580;-1.666;2022-08-20T08:55:41;19.80;66.10
33988;DHT22;37428;53.580;-1.666;2022-08-20T08:58:43;19.80;66.40
33988;DHT22;37428;53.580;-1.666;2022-08-20T09:01:47;20.40;64.80
33988;DHT22;37428;53.580;-1.666;2022-08-20T09:04:51;20.90;63.40
33988;DHT22;37428;53.580;-1.666;2022-08-20T09:07:57;21.00;62.80
33988;DHT22;37428;53.580;-1.666;2022-08-20T09:11:01;21.00;62.60
33988;DHT22;37428;53.580;-1.666;2022-08-20T09:14:04;20.80;61.80
33988;DHT22;37428;53.580;-1.666;2022-08-20T09:17:06;20.80;61.50
33988;DHT22;37428;53.580;-1.666;2022-08-20T09:20:09;20.50;62.30
33988;DHT22;37428;53.580;-1.666;2022-08-20T09:23:12;20.20;62.80
33988;DHT22;37428;53.580;-1.666;2022-08-20T09:26:15;19.80;63.40
33988;DHT22;37428;53.580;-1.666;2022-08-20T09:29:17;19.60;64.70
33988;DHT22;37428;53.580;-1.666;2022-08-20T09:32:21;19.30;65.10
33988;DHT22;37428;53.580;-1.666;2022-08-20T09:35:24;19.10;65.80
33988;DHT22;37428;53.580;-1.666;2022-08-20T09:38:28;19.00;66.60
33988;DHT22;37428;53.580;-1.666;2022-08-20T09:41:31;18.90;65.90
33988;DHT22;37428;53.580;-1.666;2022-08-20T09:44:33;18.90;66.60
33988;DHT22;37428;53.580;-1.666;2022-08-20T09:47:37;19.30;65.10
33988;DHT22;37428;53.580;-1.666;2022-08-20T09:50:41;19.50;64.60
33988;DHT22;37428;53.580;-1.666;2022-08-20T09:53:46;19.30;64.60
33988;DHT22;37428;53.580;-1.666;2022-08-20T09:56:48;19.10;64.90
33988;DHT22;37428;53.580;-1.666;2022-08-20T09:59:53;19.10;64.30
33988;DHT22;37428;53.580;-1.666;2022-08-20T10:02:56;19.20;65.40
33988;DHT22;37428;53.580;-1.666;2022-08-20T10:06:00;19.30;64.60
33988;DHT22;37428;53.580;-1.666;2022-08-20T10:09:04;19.80;63.70
33988;DHT22;37428;53.580;-1.666;2022-08-20T10:12:06;19.90;62.20
33988;DHT22;37428;53.580;-1.666;2022-08-20T10:15:10;20.00;62.10
33988;DHT22;37428;53.580;-1.666;2022-08-20T10:18:12;20.00;61.80
33988;DHT22;37428;53.580;-1.666;2022-08-20T10:21:14;19.80;61.60
33988;DHT22;37428;53.580;-1.666;2022-08-20T10:24:19;19.80;61.80
33988;DHT22;37428;53.580;-1.666;2022-08-20T10:27:22;20.50;61.20
33988;DHT22;37428;53.580;-1.666;2022-08-20T10:30:24;20.70;60.40
33988;DHT22;37428;53.580;-1.666;2022-08-20T10:33:26;20.80;60.10
33988;DHT22;37428;53.580;-1.666;2022-08-20T10:36:28;20.80;58.30
33988;DHT22;37428;53.580;-1.666;2022-08-20T10:39:32;20.40;59.20
33988;DHT22;37428;53.580;-1.666;2022-08-20T10:42:34;20.10;59.80
33988;DHT22;37428;53.580;-1.666;2022-08-20T10:45:36;20.20;60.00
33988;DHT22;37428;53.580;-1.666;2022-08-20T10:48:39;20.10;60.40
33988;DHT22;37428;53.580;-1.666;2022-08-20T10:51:41;20.10;59.70
33988;DHT22;37428;53.580;-1.666;2022-08-20T10:54:44;19.90;60.10
33988;DHT22;37428;53.580;-1.666;2022-08-20T10:57:47;19.80;61.80
33988;DHT22;37428;53.580;-1.666;2022-08-20T11:00:49;19.60;63.30
33988;DHT22;37428;53.580;-1.666;2022-08-20T11:03:52;19.40;64.00
33988;DHT22;37428;53.580;-1.666;2022-08-20T11:06:54;19.20;63.10
33988;DHT22;37428;53.580;-1.666;2022-08-20T11:09:58;19.20;64.00
33988;DHT22;37428;53.580;-1.666;2022-08-20T11:13:00;19.30;63.50
33988;DHT22;37428;53.580;-1.666;2022-08-20T11:16:03;19.30;63.00
33988;DHT22;37428;53.580;-1.666;2022-08-20T11:19:05;19.20;64.40
33988;DHT22;37428;53.580;-1.666;2022-08-20T11:22:08;19.10;66.00
33988;DHT22;37428;53.580;-1.666;2022-08-20T11:25:14;18.90;66.60
33988;DHT22;37428;53.580;-1.666;2022-08-20T11:28:16;18.80;66.60
33988;DHT22;37428;53.580;-1.666;2022-08-20T11:31:18;18.80;67.20
33988;DHT22;37428;53.580;-1.666;2022-08-20T11:34:20;18.70;66.70
33988;DHT22;37428;53.580;-1.666;2022-08-20T11:37:24;19.60;65.40
33988;DHT22;37428;53.580;-1.666;2022-08-20T11:40:28;20.50;62.10
33988;DHT22;37428;53.580;-1.666;2022-08-20T11:43:31;21.30;57.90
33988;DHT22;37428;53.580;-1.666;2022-08-20T11:46:33;21.70;56.50
33988;DHT22;37428;53.580;-1.666;2022-08-20T11:49:36;22.00;55.80
33988;DHT22;37428;53.580;-1.666;2022-08-20T11:52:38;22.10;53.80
33988;DHT22;37428;53.580;-1.666;2022-08-20T11:55:42;21.90;53.60
33988;DHT22;37428;53.580;-1.666;2022-08-20T11:58:44;22.10;53.00
33988;DHT22;37428;53.580;-1.666;2022-08-20T12:01:46;22.50;50.90
33988;DHT22;37428;53.580;-1.666;2022-08-20T12:04:49;22.90;48.50
33988;DHT22;37428;53.580;-1.666;2022-08-20T12:07:51;23.10;47.10
33988;DHT22;37428;53.580;-1.666;2022-08-20T12:10:55;23.40;46.40
33988;DHT22;37428;53.580;-1.666;2022-08-20T12:13:58;23.30;45.70
33988;DHT22;37428;53.580;-1.666;2022-08-20T12:17:07;23.60;45.90
33988;DHT22;37428;53.580;-1.666;2022-08-20T12:20:11;23.90;43.70
33988;DHT22;37428;53.580;-1.666;2022-08-20T12:23:14;24.00;42.90
33988;DHT22;37428;53.580;-1.666;2022-08-20T12:26:17;23.70;44.90
33988;DHT22;37428;53.580;-1.666;2022-08-20T12:29:20;23.30;44.80
33988;DHT22;37428;53.580;-1.666;2022-08-20T12:32:22;23.20;45.10
33988;DHT22;37428;53.580;-1.666;2022-08-20T12:35:25;23.70;45.10
33988;DHT22;37428;53.580;-1.666;2022-08-20T12:38:28;24.00;43.00
33988;DHT22;37428;53.580;-1.666;2022-08-20T12:41:31;24.40;42.10
33988;DHT22;37428;53.580;-1.666;2022-08-20T12:44:34;24.50;40.40
33988;DHT22;37428;53.580;-1.666;2022-08-20T12:47:38;24.70;40.00
33988;DHT22;37428;53.580;-1.666;2022-08-20T12:50:41;24.60;39.60
33988;DHT22;37428;53.580;-1.666;2022-08-20T12:53:45;24.60;40.20
33988;DHT22;37428;53.580;-1.666;2022-08-20T12:56:48;24.80;40.10
33988;DHT22;37428;53.580;-1.666;2022-08-20T12:59:51;24.90;39.10
33988;DHT22;37428;53.580;-1.666;2022-08-20T13:02:55;25.10;38.30
33988;DHT22;37428;53.580;-1.666;2022-08-20T13:06:00;25.20;37.70
33988;DHT22;37428;53.580;-1.666;2022-08-20T13:09:02;25.00;38.00
33988;DHT22;37428;53.580;-1.666;2022-08-20T13:12:06;25.20;38.70
33988;DHT22;37428;53.580;-1.666;2022-08-20T13:15:10;25.20;36.50
33988;DHT22;37428;53.580;-1.666;2022-08-20T13:18:12;25.30;36.40
33988;DHT22;37428;53.580;-1.666;2022-08-20T13:21:14;24.90;37.10
33988;DHT22;37428;53.580;-1.666;2022-08-20T13:24:16;25.10;37.00
33988;DHT22;37428;53.580;-1.666;2022-08-20T13:27:20;25.00;36.70
33988;DHT22;37428;53.580;-1.666;2022-08-20T13:30:25;24.60;37.90
33988;DHT22;37428;53.580;-1.666;2022-08-20T13:33:28;24.70;38.80
33988;DHT22;37428;53.580;-1.666;2022-08-20T13:36:30;25.00;37.70
33988;DHT22;37428;53.580;-1.666;2022-08-20T13:39:32;25.20;36.90
33988;DHT22;37428;53.580;-1.666;2022-08-20T13:42:36;25.40;36.90
33988;DHT22;37428;53.580;-1.666;2022-08-20T13:45:38;25.60;35.50
33988;DHT22;37428;53.580;-1.666;2022-08-20T13:48:41;25.60;35.00
33988;DHT22;37428;53.580;-1.666;2022-08-20T13:51:43;25.70;34.20
33988;DHT22;37428;53.580;-1.666;2022-08-20T13:54:45;25.70;34.90
33988;DHT22;37428;53.580;-1.666;2022-08-20T13:57:49;25.70;34.40
33988;DHT22;37428;53.580;-1.666;2022-08-20T14:00:52;25.80;34.50
33988;DHT22;37428;53.580;-1.666;2022-08-20T14:03:54;25.20;35.20
33988;DHT22;37428;53.580;-1.666;2022-08-20T14:06:56;25.00;35.70
33988;DHT22;37428;53.580;-1.666;2022-08-20T14:09:59;24.60;35.40
33988;DHT22;37428;53.580;-1.666;2022-08-20T14:13:04;24.60;35.60
33988;DHT22;37428;53.580;-1.666;2022-08-20T14:16:06;24.00;36.40
33988;DHT22;37428;53.580;-1.666;2022-08-20T14:19:08;23.60;37.40
33988;DHT22;37428;53.580;-1.666;2022-08-20T14:22:11;23.50;36.80
33988;DHT22;37428;53.580;-1.666;2022-08-20T14:25:15;23.80;37.30
33988;DHT22;37428;53.580;-1.666;2022-08-20T14:28:21;23.80;35.60
33988;DHT22;37428;53.580;-1.666;2022-08-20T14:31:23;24.00;36.90
33988;DHT22;37428;53.580;-1.666;2022-08-20T14:34:25;23.90;36.60
33988;DHT22;37428;53.580;-1.666;2022-08-20T14:37:29;24.00;36.80
33988;DHT22;37428;53.580;-1.666;2022-08-20T14:40:33;24.30;36.30
33988;DHT22;37428;53.580;-1.666;2022-08-20T14:43:36;24.40;36.30
33988;DHT22;37428;53.580;-1.666;2022-08-20T14:46:39;24.40;36.40
33988;DHT22;37428;53.580;-1.666;2022-08-20T14:49:41;24.20;36.60
33988;DHT22;37428;53.580;-1.666;2022-08-20T14:52:44;23.80;36.80
33988;DHT22;37428;53.580;-1.666;2022-08-20T14:55:46;23.40;37.80
33988;DHT22;37428;53.580;-1.666;2022-08-20T14:58:50;23.00;38.30
33988;DHT22;37428;53.580;-1.666;2022-08-20T15:01:52;22.80;39.00
33988;DHT22;37428;53.580;-1.666;2022-08-20T15:04:54;22.70;39.20
33988;DHT22;37428;53.580;-1.666;2022-08-20T15:07:57;22.50;39.20
33988;DHT22;37428;53.580;-1.666;2022-08-20T15:10:59;22.90;39.00
33988;DHT22;37428;53.580;-1.666;2022-08-20T15:14:02;23.10;38.50
33988;DHT22;37428;53.580;-1.666;2022-08-20T15:17:05;23.30;37.70
33988;DHT22;37428;53.580;-1.666;2022-08-20T15:20:08;23.50;37.00
33988;DHT22;37428;53.580;-1.666;2022-08-20T15:23:11;23.40;37.10
33988;DHT22;37428;53.580;-1.666;2022-08-20T15:26:14;23.50;38.00
33988;DHT22;37428;53.580;-1.666;2022-08-20T15:29:17;23.50;37.40
33988;DHT22;37428;53.580;-1.666;2022-08-20T15:32:20;23.60;37.40
33988;DHT22;37428;53.580;-1.666;2022-08-20T15:35:24;23.70;37.70
33988;DHT22;37428;53.580;-1.666;2022-08-20T15:38:27;24.00;37.00
33988;DHT22;37428;53.580;-1.666;2022-08-20T15:41:30;24.20;37.00
33988;DHT22;37428;53.580;-1.666;2022-08-20T15:44:34;24.10;36.40
33988;DHT22;37428;53.580;-1.666;2022-08-20T15:47:46;24.20;36.70
33988;DHT22;37428;53.580;-1.666;2022-08-20T15:51:01;24.00;37.40
33988;DHT22;37428;53.580;-1.666;2022-08-20T15:54:16;23.90;38.00
33988;DHT22;37428;53.580;-1.666;2022-08-20T15:57:31;23.60;38.70
33988;DHT22;37428;53.580;-1.666;2022-08-20T16:00:41;23.20;39.20
33988;DHT22;37428;53.580;-1.666;2022-08-20T16:04:02;23.00;39.60
33988;DHT22;37428;53.580;-1.666;2022-08-20T16:07:12;23.00;39.50
33988;DHT22;37428;53.580;-1.666;2022-08-20T16:10:17;23.00;39.70
33988;DHT22;37428;53.580;-1.666;2022-08-20T16:13:30;23.20;40.10
33988;DHT22;37428;53.580;-1.666;2022-08-20T16:16:39;23.10;40.00
33988;DHT22;37428;53.580;-1.666;2022-08-20T16:19:50;23.20;40.10
33988;DHT22;37428;53.580;-1.666;2022-08-20T16:22:53;23.40;39.40
33988;DHT22;37428;53.580;-1.666;2022-08-20T16:26:06;23.50;39.40
33988;DHT22;37428;53.580;-1.666;2022-08-20T16:29:16;23.40;39.70
33988;DHT22;37428;53.580;-1.666;2022-08-20T16:32:36;23.40;39.50
33988;DHT22;37428;53.580;-1.666;2022-08-20T16:35:46;23.30;39.50
33988;DHT22;37428;53.580;-1.666;2022-08-20T16:38:56;23.10;39.90
33988;DHT22;37428;53.580;-1.666;2022-08-20T16:42:00;22.80;40.60
33988;DHT22;37428;53.580;-1.666;2022-08-20T16:45:08;22.90;40.60
33988;DHT22;37428;53.580;-1.666;2022-08-20T16:48:14;22.80;40.30
33988;DHT22;37428;53.580;-1.666;2022-08-20T16:51:18;22.80;40.70
33988;DHT22;37428;53.580;-1.666;2022-08-20T16:54:22;22.90;40.90
33988;DHT22;37428;53.580;-1.666;2022-08-20T16:57:27;22.80;41.00
33988;DHT22;37428;53.580;-1.666;2022-08-20T17:00:30;22.70;40.50
33988;DHT22;37428;53.580;-1.666;2022-08-20T17:03:37;22.60;41.40
33988;DHT22;37428;53.580;-1.666;2022-08-20T17:06:43;22.40;41.20
33988;DHT22;37428;53.580;-1.666;2022-08-20T17:09:46;22.30;41.70
33988;DHT22;37428;53.580;-1.666;2022-08-20T17:12:54;22.10;41.50
33988;DHT22;37428;53.580;-1.666;2022-08-20T17:15:58;22.00;42.10
33988;DHT22;37428;53.580;-1.666;2022-08-20T17:19:09;22.00;42.90
33988;DHT22;37428;53.580;-1.666;2022-08-20T17:22:18;21.80;43.20
33988;DHT22;37428;53.580;-1.666;2022-08-20T17:25:29;21.70;43.50
33988;DHT22;37428;53.580;-1.666;2022-08-20T17:28:32;21.60;43.80
33988;DHT22;37428;53.580;-1.666;2022-08-20T17:31:36;21.40;43.00
33988;DHT22;37428;53.580;-1.666;2022-08-20T17:34:45;21.40;42.60
33988;DHT22;37428;53.580;-1.666;2022-08-20T17:37:50;21.30;42.60
33988;DHT22;37428;53.580;-1.666;2022-08-20T17:40:57;21.20;43.00
33988;DHT22;37428;53.580;-1.666;2022-08-20T17:44:03;21.00;43.50
33988;DHT22;37428;53.580;-1.666;2022-08-20T17:47:10;21.00;44.20
33988;DHT22;37428;53.580;-1.666;2022-08-20T17:50:18;20.90;45.00
33988;DHT22;37428;53.580;-1.666;2022-08-20T17:53:23;20.80;45.40
33988;DHT22;37428;53.580;-1.666;2022-08-20T17:56:28;20.70;46.10
33988;DHT22;37428;53.580;-1.666;2022-08-20T17:59:34;20.60;46.40
33988;DHT22;37428;53.580;-1.666;2022-08-20T18:02:37;20.50;46.90
33988;DHT22;37428;53.580;-1.666;2022-08-20T18:05:41;20.40;47.10
33988;DHT22;37428;53.580;-1.666;2022-08-20T18:08:52;20.30;47.60
33988;DHT22;37428;53.580;-1.666;2022-08-20T18:12:01;20.20;48.00
33988;DHT22;37428;53.580;-1.666;2022-08-20T18:15:08;20.20;48.60
33988;DHT22;37428;53.580;-1.666;2022-08-20T18:18:19;20.10;49.00
33988;DHT22;37428;53.580;-1.666;2022-08-20T18:21:49;20.10;49.30
33988;DHT22;37428;53.580;-1.666;2022-08-20T18:25:01;20.00;49.30
33988;DHT22;37428;53.580;-1.666;2022-08-20T18:28:07;20.00;48.90
33988;DHT22;37428;53.580;-1.666;2022-08-20T18:31:25;19.90;49.10
33988;DHT22;37428;53.580;-1.666;2022-08-20T18:34:37;19.90;49.40
33988;DHT22;37428;53.580;-1.666;2022-08-20T18:37:41;19.80;49.50
33988;DHT22;37428;53.580;-1.666;2022-08-20T18:40:43;19.70;49.60
33988;DHT22;37428;53.580;-1.666;2022-08-20T18:43:45;19.70;49.90
33988;DHT22;37428;53.580;-1.666;2022-08-20T18:46:52;19.60;49.90
33988;DHT22;37428;53.580;-1.666;2022-08-20T18:50:00;19.50;50.40
33988;DHT22;37428;53.580;-1.666;2022-08-20T18:53:10;19.50;50.60
33988;DHT22;37428;53.580;-1.666;2022-08-20T18:56:16;19.40;50.90
33988;DHT22;37428;53.580;-1.666;2022-08-20T18:59:31;19.30;51.10
33988;DHT22;37428;53.580;-1.666;2022-08-20T19:02:37;19.30;51.40
33988;DHT22;37428;53.580;-1.666;2022-08-20T19:05:53;19.20;51.60